sensor_id;sensor_type;location;lat;lon;timestamp;temperature;humidity
39751;DHT22;37579;51.074;17.004;2024-03-06T00:00:57;24.40;57.20
39751;DHT22;37579;51.074;17.004;2024-03-06T00:03:23;24.40;57.10
39751;DHT22;37579;51.074;17.004;2024-03-06T00:05:49;24.40;57.20
39751;DHT22;37579;51.074;17.004;2024-03-06T00:08:15;24.40;57.10
39751;DHT22;37579;51.074;17.004;2024-03-06T00:10:41;24.40;57.10
39751;DHT22;37579;51.074;17.004;2024-03-06T00:13:07;24.40;57.10
39751;DHT22;37579;51.074;17.004;2024-03-06T00:15:33;24.40;57.10
39751;DHT22;37579;51.074;17.004;2024-03-06T00:17:59;24.40;57.10
39751;DHT22;37579;51.074;17.004;2024-03-06T00:20:26;24.40;57.20
39751;DHT22;37579;51.074;17.004;2024-03-06T00:22:52;24.40;57.10
39751;DHT22;37579;51.074;17.004;2024-03-06T00:25:17;24.40;57.10
39751;DHT22;37579;51.074;17.004;2024-03-06T00:27:43;24.40;57.10
39751;DHT22;37579;51.074;17.004;2024-03-06T00:30:09;24.30;57.00
39751;DHT22;37579;51.074;17.004;2024-03-06T00:32:36;24.30;57.10
39751;DHT22;37579;51.074;17.004;2024-03-06T00:35:02;24.30;57.00
39751;DHT22;37579;51.074;17.004;2024-03-06T00:37:29;24.30;57.00
39751;DHT22;37579;51.074;17.004;2024-03-06T00:39:55;24.30;57.00
39751;DHT22;37579;51.074;17.004;2024-03-06T00:42:21;24.30;57.00
39751;DHT22;37579;51.074;17.004;2024-03-06T00:44:47;24.30;57.00
39751;DHT22;37579;51.074;17.004;2024-03-06T00:47:13;24.30;57.00
39751;DHT22;37579;51.074;17.004;2024-03-06T00:49:38;24.30;57.00
39751;DHT22;37579;51.074;17.004;2024-03-06T00:52:04;24.30;57.00
39751;DHT22;37579;51.074;17.004;2024-03-06T00:54:30;24.30;57.00
39751;DHT22;37579;51.074;17.004;2024-03-06T00:56:56;24.30;56.90
39751;DHT22;37579;51.074;17.004;2024-03-06T00:59:23;24.30;57.10
39751;DHT22;37579;51.074;17.004;2024-03-06T01:01:49;24.30;57.00
39751;DHT22;37579;51.074;17.004;2024-03-06T01:04:15;24.30;57.10
39751;DHT22;37579;51.074;17.004;2024-03-06T01:06:41;24.20;57.20
39751;DHT22;37579;51.074;17.004;2024-03-06T01:09:07;24.20;57.20
39751;DHT22;37579;51.074;17.004;2024-03-06T01:11:33;24.20;57.20
39751;DHT22;37579;51.074;17.004;2024-03-06T01:13:59;24.20;57.30
39751;DHT22;37579;51.074;17.004;2024-03-06T01:16:25;24.20;57.30
39751;DHT22;37579;51.074;17.004;2024-03-06T01:18:51;24.20;57.30
39751;DHT22;37579;51.074;17.004;2024-03-06T01:21:16;24.20;57.40
39751;DHT22;37579;51.074;17.004;2024-03-06T01:23:42;24.20;57.40
39751;DHT22;37579;51.074;17.004;2024-03-06T01:26:08;24.20;57.50
39751;DHT22;37579;51.074;17.004;2024-03-06T01:28:34;24.20;57.60
39751;DHT22;37579;51.074;17.004;2024-03-06T01:31:00;24.20;57.60
39751;DHT22;37579;51.074;17.004;2024-03-06T01:33:25;24.20;57.60
39751;DHT22;37579;51.074;17.004;2024-03-06T01:35:52;24.20;57.70
39751;DHT22;37579;51.074;17.004;2024-03-06T01:38:17;24.20;57.60
39751;DHT22;37579;51.074;17.004;2024-03-06T01:40:44;24.20;57.60
39751;DHT22;37579;51.074;17.004;2024-03-06T01:43:23;24.20;57.60
39751;DHT22;37579;51.074;17.004;2024-03-06T01:45:50;24.20;57.60
39751;DHT22;37579;51.074;17.004;2024-03-06T01:48:17;24.20;57.60
39751;DHT22;37579;51.074;17.004;2024-03-06T01:50:44;24.20;57.50
39751;DHT22;37579;51.074;17.004;2024-03-06T01:53:12;24.20;58.10
39751;DHT22;37579;51.074;17.004;2024-03-06T01:55:38;24.20;57.50
39751;DHT22;37579;51.074;17.004;2024-03-06T01:58:04;24.20;57.50
39751;DHT22;37579;51.074;17.004;2024-03-06T02:00:32;24.20;57.50
39751;DHT22;37579;51.074;17.004;2024-03-06T02:03:00;24.20;57.60
39751;DHT22;37579;51.074;17.004;2024-03-06T02:05:27;24.20;57.50
39751;DHT22;37579;51.074;17.004;2024-03-06T02:07:55;24.20;57.60
39751;DHT22;37579;51.074;17.004;2024-03-06T02:10:22;24.20;57.60
39751;DHT22;37579;51.074;17.004;2024-03-06T02:12:48;24.10;57.50
39751;DHT22;37579;51.074;17.004;2024-03-06T02:15:14;24.10;57.50
39751;DHT22;37579;51.074;17.004;2024-03-06T02:17:40;24.10;57.50
39751;DHT22;37579;51.074;17.004;2024-03-06T02:20:07;24.10;57.50
39751;DHT22;37579;51.074;17.004;2024-03-06T02:22:38;24.10;57.50
39751;DHT22;37579;51.074;17.004;2024-03-06T02:25:05;24.10;57.60
39751;DHT22;37579;51.074;17.004;2024-03-06T02:27:31;24.10;57.50
39751;DHT22;37579;51.074;17.004;2024-03-06T02:29:57;24.20;57.60
39751;DHT22;37579;51.074;17.004;2024-03-06T02:32:23;24.10;57.50
39751;DHT22;37579;51.074;17.004;2024-03-06T02:34:50;24.20;58.10
39751;DHT22;37579;51.074;17.004;2024-03-06T02:37:16;24.20;57.50
39751;DHT22;37579;51.074;17.004;2024-03-06T02:39:41;24.20;57.40
39751;DHT22;37579;51.074;17.004;2024-03-06T02:42:07;24.20;57.40
39751;DHT22;37579;51.074;17.004;2024-03-06T02:44:33;24.20;57.50
39751;DHT22;37579;51.074;17.004;2024-03-06T02:46:59;24.20;57.40
39751;DHT22;37579;51.074;17.004;2024-03-06T02:49:25;24.20;57.40
39751;DHT22;37579;51.074;17.004;2024-03-06T02:51:51;24.20;57.40
39751;DHT22;37579;51.074;17.004;2024-03-06T02:54:18;24.20;57.30
39751;DHT22;37579;51.074;17.004;2024-03-06T02:56:44;24.20;57.30
39751;DHT22;37579;51.074;17.004;2024-03-06T02:59:10;24.20;57.20
39751;DHT22;37579;51.074;17.004;2024-03-06T03:01:36;24.20;57.20
39751;DHT22;37579;51.074;17.004;2024-03-06T03:04:01;24.20;57.20
39751;DHT22;37579;51.074;17.004;2024-03-06T03:06:27;24.20;57.30
39751;DHT22;37579;51.074;17.004;2024-03-06T03:08:54;24.20;57.30
39751;DHT22;37579;51.074;17.004;2024-03-06T03:11:21;24.20;57.30
39751;DHT22;37579;51.074;17.004;2024-03-06T03:13:47;24.20;57.30
39751;DHT22;37579;51.074;17.004;2024-03-06T03:16:17;24.20;58.00
39751;DHT22;37579;51.074;17.004;2024-03-06T03:18:43;24.20;57.30
39751;DHT22;37579;51.074;17.004;2024-03-06T03:21:09;24.20;57.30
39751;DHT22;37579;51.074;17.004;2024-03-06T03:23:38;24.20;57.30
39751;DHT22;37579;51.074;17.004;2024-03-06T03:26:05;24.20;57.30
39751;DHT22;37579;51.074;17.004;2024-03-06T03:28:31;24.20;57.30
39751;DHT22;37579;51.074;17.004;2024-03-06T03:30:58;24.30;57.30
39751;DHT22;37579;51.074;17.004;2024-03-06T03:33:24;24.30;57.30
39751;DHT22;37579;51.074;17.004;2024-03-06T03:35:50;24.30;57.30
39751;DHT22;37579;51.074;17.004;2024-03-06T03:38:16;24.30;57.20
39751;DHT22;37579;51.074;17.004;2024-03-06T03:40:42;24.30;57.30
39751;DHT22;37579;51.074;17.004;2024-03-06T03:43:08;24.20;57.20
39751;DHT22;37579;51.074;17.004;2024-03-06T03:45:35;24.20;57.30
39751;DHT22;37579;51.074;17.004;2024-03-06T03:48:02;24.20;57.10
39751;DHT22;37579;51.074;17.004;2024-03-06T03:50:31;24.20;57.10
39751;DHT22;37579;51.074;17.004;2024-03-06T03:52:57;24.20;57.20
39751;DHT22;37579;51.074;17.004;2024-03-06T03:55:26;24.20;57.10
39751;DHT22;37579;51.074;17.004;2024-03-06T03:57:52;24.20;57.10
39751;DHT22;37579;51.074;17.004;2024-03-06T04:00:18;24.20;57.10
39751;DHT22;37579;51.074;17.004;2024-03-06T04:02:45;24.20;57.10
39751;DHT22;37579;51.074;17.004;2024-03-06T04:05:10;24.20;57.10
39751;DHT22;37579;51.074;17.004;2024-03-06T04:07:36;24.20;57.00
39751;DHT22;37579;51.074;17.004;2024-03-06T04:10:03;24.20;57.00
39751;DHT22;37579;51.074;17.004;2024-03-06T04:12:29;24.20;57.00
39751;DHT22;37579;51.074;17.004;2024-03-06T04:14:56;24.20;57.00
39751;DHT22;37579;51.074;17.004;2024-03-06T04:17:22;24.20;56.90
39751;DHT22;37579;51.074;17.004;2024-03-06T04:19:48;24.20;56.90
39751;DHT22;37579;51.074;17.004;2024-03-06T04:22:14;24.20;56.90
39751;DHT22;37579;51.074;17.004;2024-03-06T04:24:43;24.20;57.00
39751;DHT22;37579;51.074;17.004;2024-03-06T04:27:10;24.20;56.90
39751;DHT22;37579;51.074;17.004;2024-03-06T04:29:36;24.10;56.90
39751;DHT22;37579;51.074;17.004;2024-03-06T04:32:01;24.20;56.90
39751;DHT22;37579;51.074;17.004;2024-03-06T04:34:27;24.10;56.80
39751;DHT22;37579;51.074;17.004;2024-03-06T04:36:53;24.10;56.80
39751;DHT22;37579;51.074;17.004;2024-03-06T04:39:19;24.10;56.80
39751;DHT22;37579;51.074;17.004;2024-03-06T04:41:45;24.10;56.80
39751;DHT22;37579;51.074;17.004;2024-03-06T04:44:10;24.10;56.80
39751;DHT22;37579;51.074;17.004;2024-03-06T04:46:36;24.10;56.70
39751;DHT22;37579;51.074;17.004;2024-03-06T04:49:03;24.10;56.70
39751;DHT22;37579;51.074;17.004;2024-03-06T04:51:28;24.10;56.70
39751;DHT22;37579;51.074;17.004;2024-03-06T04:53:54;24.10;56.70
39751;DHT22;37579;51.074;17.004;2024-03-06T04:56:20;24.10;56.70
39751;DHT22;37579;51.074;17.004;2024-03-06T04:58:47;24.10;56.70
39751;DHT22;37579;51.074;17.004;2024-03-06T05:01:13;24.10;56.80
39751;DHT22;37579;51.074;17.004;2024-03-06T05:03:39;24.10;56.90
39751;DHT22;37579;51.074;17.004;2024-03-06T05:06:05;24.10;56.90
39751;DHT22;37579;51.074;17.004;2024-03-06T05:08:31;24.10;56.90
39751;DHT22;37579;51.074;17.004;2024-03-06T05:11:00;24.10;57.00
39751;DHT22;37579;51.074;17.004;2024-03-06T05:13:26;24.10;57.10
39751;DHT22;37579;51.074;17.004;2024-03-06T05:15:52;24.00;57.30
39751;DHT22;37579;51.074;17.004;2024-03-06T05:18:19;24.00;57.30
39751;DHT22;37579;51.074;17.004;2024-03-06T05:20:46;24.00;57.30
39751;DHT22;37579;51.074;17.004;2024-03-06T05:23:12;24.00;57.40
39751;DHT22;37579;51.074;17.004;2024-03-06T05:25:38;24.10;57.50
39751;DHT22;37579;51.074;17.004;2024-03-06T05:28:04;24.00;57.60
39751;DHT22;37579;51.074;17.004;2024-03-06T05:30:30;24.10;57.60
39751;DHT22;37579;51.074;17.004;2024-03-06T05:32:56;24.10;58.00
39751;DHT22;37579;51.074;17.004;2024-03-06T05:35:22;24.20;57.70
39751;DHT22;37579;51.074;17.004;2024-03-06T05:37:48;24.20;57.70
39751;DHT22;37579;51.074;17.004;2024-03-06T05:40:14;24.20;57.60
39751;DHT22;37579;51.074;17.004;2024-03-06T05:42:40;24.20;57.60
39751;DHT22;37579;51.074;17.004;2024-03-06T05:45:06;24.30;57.60
39751;DHT22;37579;51.074;17.004;2024-03-06T05:47:38;24.30;57.60
39751;DHT22;37579;51.074;17.004;2024-03-06T05:50:08;24.30;57.50
39751;DHT22;37579;51.074;17.004;2024-03-06T05:52:36;24.30;57.30
39751;DHT22;37579;51.074;17.004;2024-03-06T05:55:02;24.30;57.40
39751;DHT22;37579;51.074;17.004;2024-03-06T05:57:31;24.30;57.30
39751;DHT22;37579;51.074;17.004;2024-03-06T05:59:57;24.30;57.40
39751;DHT22;37579;51.074;17.004;2024-03-06T06:02:23;24.30;57.40
39751;DHT22;37579;51.074;17.004;2024-03-06T06:04:49;24.40;57.50
39751;DHT22;37579;51.074;17.004;2024-03-06T06:07:15;24.30;54.50
39751;DHT22;37579;51.074;17.004;2024-03-06T06:09:41;24.30;55.10
39751;DHT22;37579;51.074;17.004;2024-03-06T06:12:07;24.30;55.30
39751;DHT22;37579;51.074;17.004;2024-03-06T06:14:33;24.30;54.70
39751;DHT22;37579;51.074;17.004;2024-03-06T06:16:58;24.30;53.70
39751;DHT22;37579;51.074;17.004;2024-03-06T06:19:24;24.30;54.10
39751;DHT22;37579;51.074;17.004;2024-03-06T06:21:54;24.30;54.30
39751;DHT22;37579;51.074;17.004;2024-03-06T06:24:20;24.30;54.20
39751;DHT22;37579;51.074;17.004;2024-03-06T06:26:46;24.30;54.20
39751;DHT22;37579;51.074;17.004;2024-03-06T06:29:11;24.30;54.30
39751;DHT22;37579;51.074;17.004;2024-03-06T06:31:37;24.30;54.30
39751;DHT22;37579;51.074;17.004;2024-03-06T06:34:04;24.30;54.50
39751;DHT22;37579;51.074;17.004;2024-03-06T06:36:30;24.30;54.60
39751;DHT22;37579;51.074;17.004;2024-03-06T06:38:55;24.40;54.70
39751;DHT22;37579;51.074;17.004;2024-03-06T06:41:22;24.30;54.70
39751;DHT22;37579;51.074;17.004;2024-03-06T06:43:50;24.30;54.80
39751;DHT22;37579;51.074;17.004;2024-03-06T06:46:18;24.30;54.80
39751;DHT22;37579;51.074;17.004;2024-03-06T06:48:44;24.40;54.80
39751;DHT22;37579;51.074;17.004;2024-03-06T06:51:09;24.40;54.80
39751;DHT22;37579;51.074;17.004;2024-03-06T06:53:35;24.40;54.80
39751;DHT22;37579;51.074;17.004;2024-03-06T06:56:04;24.50;54.80
39751;DHT22;37579;51.074;17.004;2024-03-06T06:58:30;24.50;54.80
39751;DHT22;37579;51.074;17.004;2024-03-06T07:00:56;24.50;54.80
39751;DHT22;37579;51.074;17.004;2024-03-06T07:03:22;24.60;54.90
39751;DHT22;37579;51.074;17.004;2024-03-06T07:05:48;24.60;54.40
39751;DHT22;37579;51.074;17.004;2024-03-06T07:08:14;24.50;54.20
39751;DHT22;37579;51.074;17.004;2024-03-06T07:10:40;24.60;54.40
39751;DHT22;37579;51.074;17.004;2024-03-06T07:13:05;24.60;54.40
39751;DHT22;37579;51.074;17.004;2024-03-06T07:15:31;24.60;54.60
39751;DHT22;37579;51.074;17.004;2024-03-06T07:17:58;24.60;54.60
39751;DHT22;37579;51.074;17.004;2024-03-06T07:20:23;24.60;54.60
39751;DHT22;37579;51.074;17.004;2024-03-06T07:22:49;24.70;54.70
39751;DHT22;37579;51.074;17.004;2024-03-06T07:25:16;24.70;54.70
39751;DHT22;37579;51.074;17.004;2024-03-06T07:27:42;24.60;54.70
39751;DHT22;37579;51.074;17.004;2024-03-06T07:30:08;24.70;54.70
39751;DHT22;37579;51.074;17.004;2024-03-06T07:32:34;24.70;54.70
39751;DHT22;37579;51.074;17.004;2024-03-06T07:35:00;24.70;54.70
39751;DHT22;37579;51.074;17.004;2024-03-06T07:37:26;24.70;54.80
39751;DHT22;37579;51.074;17.004;2024-03-06T07:39:51;24.70;54.80
39751;DHT22;37579;51.074;17.004;2024-03-06T07:42:17;24.70;54.90
39751;DHT22;37579;51.074;17.004;2024-03-06T07:44:43;24.70;55.10
39751;DHT22;37579;51.074;17.004;2024-03-06T07:47:09;24.70;55.30
39751;DHT22;37579;51.074;17.004;2024-03-06T07:49:35;24.70;55.50
39751;DHT22;37579;51.074;17.004;2024-03-06T07:52:01;24.70;55.60
39751;DHT22;37579;51.074;17.004;2024-03-06T07:54:27;24.80;55.60
39751;DHT22;37579;51.074;17.004;2024-03-06T07:56:53;24.80;55.70
39751;DHT22;37579;51.074;17.004;2024-03-06T07:59:19;24.80;55.70
39751;DHT22;37579;51.074;17.004;2024-03-06T08:01:45;24.80;55.70
39751;DHT22;37579;51.074;17.004;2024-03-06T08:04:11;24.80;55.70
39751;DHT22;37579;51.074;17.004;2024-03-06T08:06:37;24.80;55.70
39751;DHT22;37579;51.074;17.004;2024-03-06T08:09:03;24.80;55.70
39751;DHT22;37579;51.074;17.004;2024-03-06T08:11:29;24.80;55.80
39751;DHT22;37579;51.074;17.004;2024-03-06T08:13:59;24.90;55.80
39751;DHT22;37579;51.074;17.004;2024-03-06T08:16:25;24.90;55.70
39751;DHT22;37579;51.074;17.004;2024-03-06T08:18:51;25.00;55.60
39751;DHT22;37579;51.074;17.004;2024-03-06T08:21:17;25.00;55.40
39751;DHT22;37579;51.074;17.004;2024-03-06T08:23:43;25.00;55.20
39751;DHT22;37579;51.074;17.004;2024-03-06T08:26:10;25.00;55.20
39751;DHT22;37579;51.074;17.004;2024-03-06T08:28:36;25.10;55.20
39751;DHT22;37579;51.074;17.004;2024-03-06T08:31:02;25.10;55.20
39751;DHT22;37579;51.074;17.004;2024-03-06T08:33:27;25.10;55.10
39751;DHT22;37579;51.074;17.004;2024-03-06T08:35:53;25.10;55.10
39751;DHT22;37579;51.074;17.004;2024-03-06T08:38:19;25.20;55.20
39751;DHT22;37579;51.074;17.004;2024-03-06T08:40:45;25.20;55.20
39751;DHT22;37579;51.074;17.004;2024-03-06T08:43:12;25.20;55.20
39751;DHT22;37579;51.074;17.004;2024-03-06T08:45:41;25.20;55.20
39751;DHT22;37579;51.074;17.004;2024-03-06T08:48:08;25.20;55.20
39751;DHT22;37579;51.074;17.004;2024-03-06T08:50:34;25.20;55.20
39751;DHT22;37579;51.074;17.004;2024-03-06T08:53:00;25.20;55.20
39751;DHT22;37579;51.074;17.004;2024-03-06T08:55:27;25.20;55.30
39751;DHT22;37579;51.074;17.004;2024-03-06T08:57:54;25.20;55.30
39751;DHT22;37579;51.074;17.004;2024-03-06T09:00:19;25.20;55.30
39751;DHT22;37579;51.074;17.004;2024-03-06T09:02:45;25.20;55.40
39751;DHT22;37579;51.074;17.004;2024-03-06T09:05:11;25.20;55.40
39751;DHT22;37579;51.074;17.004;2024-03-06T09:07:38;25.20;55.40
39751;DHT22;37579;51.074;17.004;2024-03-06T09:10:07;25.20;55.50
39751;DHT22;37579;51.074;17.004;2024-03-06T09:12:33;25.20;55.50
39751;DHT22;37579;51.074;17.004;2024-03-06T09:15:00;25.20;55.40
39751;DHT22;37579;51.074;17.004;2024-03-06T09:17:27;25.20;56.10
39751;DHT22;37579;51.074;17.004;2024-03-06T09:19:53;25.20;55.30
39751;DHT22;37579;51.074;17.004;2024-03-06T09:22:19;25.20;55.40
39751;DHT22;37579;51.074;17.004;2024-03-06T09:24:45;25.20;55.40
39751;DHT22;37579;51.074;17.004;2024-03-06T09:27:12;25.20;55.40
39751;DHT22;37579;51.074;17.004;2024-03-06T09:29:39;25.20;55.50
39751;DHT22;37579;51.074;17.004;2024-03-06T09:32:05;25.10;55.40
39751;DHT22;37579;51.074;17.004;2024-03-06T09:34:31;25.20;55.40
39751;DHT22;37579;51.074;17.004;2024-03-06T09:36:57;25.20;55.30
39751;DHT22;37579;51.074;17.004;2024-03-06T09:39:23;25.10;55.40
39751;DHT22;37579;51.074;17.004;2024-03-06T09:41:53;25.10;55.40
39751;DHT22;37579;51.074;17.004;2024-03-06T09:44:20;25.00;55.50
39751;DHT22;37579;51.074;17.004;2024-03-06T09:46:48;25.00;55.60
39751;DHT22;37579;51.074;17.004;2024-03-06T09:49:18;25.00;55.70
39751;DHT22;37579;51.074;17.004;2024-03-06T09:51:47;25.00;55.80
39751;DHT22;37579;51.074;17.004;2024-03-06T09:54:16;25.00;55.70
39751;DHT22;37579;51.074;17.004;2024-03-06T09:56:48;24.90;55.80
39751;DHT22;37579;51.074;17.004;2024-03-06T09:59:15;24.90;55.80
39751;DHT22;37579;51.074;17.004;2024-03-06T10:04:25;24.80;54.90
39751;DHT22;37579;51.074;17.004;2024-03-06T10:06:57;24.10;39.70
39751;DHT22;37579;51.074;17.004;2024-03-06T10:09:23;23.50;35.60
39751;DHT22;37579;51.074;17.004;2024-03-06T10:11:49;23.20;35.30
39751;DHT22;37579;51.074;17.004;2024-03-06T10:14:15;22.70;33.40
39751;DHT22;37579;51.074;17.004;2024-03-06T10:16:58;22.50;33.70
39751;DHT22;37579;51.074;17.004;2024-03-06T10:19:26;22.70;35.70
39751;DHT22;37579;51.074;17.004;2024-03-06T10:21:55;23.20;38.40
39751;DHT22;37579;51.074;17.004;2024-03-06T10:24:24;23.60;39.80
39751;DHT22;37579;51.074;17.004;2024-03-06T10:26:51;23.80;40.80
39751;DHT22;37579;51.074;17.004;2024-03-06T10:29:20;23.90;41.60
39751;DHT22;37579;51.074;17.004;2024-03-06T10:31:53;23.90;42.10
39751;DHT22;37579;51.074;17.004;2024-03-06T10:34:23;24.00;43.00
39751;DHT22;37579;51.074;17.004;2024-03-06T10:36:57;24.00;43.50
39751;DHT22;37579;51.074;17.004;2024-03-06T10:39:24;24.10;43.90
39751;DHT22;37579;51.074;17.004;2024-03-06T10:41:55;24.10;43.80
39751;DHT22;37579;51.074;17.004;2024-03-06T10:44:23;24.10;44.50
39751;DHT22;37579;51.074;17.004;2024-03-06T10:47:02;24.20;44.90
39751;DHT22;37579;51.074;17.004;2024-03-06T10:49:30;24.20;45.40
39751;DHT22;37579;51.074;17.004;2024-03-06T10:52:04;24.30;46.00
39751;DHT22;37579;51.074;17.004;2024-03-06T10:54:33;24.30;46.40
39751;DHT22;37579;51.074;17.004;2024-03-06T10:57:01;24.30;46.80
39751;DHT22;37579;51.074;17.004;2024-03-06T10:59:28;24.40;47.20
39751;DHT22;37579;51.074;17.004;2024-03-06T11:01:55;24.40;47.40
39751;DHT22;37579;51.074;17.004;2024-03-06T11:04:24;24.40;47.60
39751;DHT22;37579;51.074;17.004;2024-03-06T11:06:50;24.40;47.80
39751;DHT22;37579;51.074;17.004;2024-03-06T11:09:17;24.40;48.00
39751;DHT22;37579;51.074;17.004;2024-03-06T11:11:50;24.40;48.20
39751;DHT22;37579;51.074;17.004;2024-03-06T11:14:17;24.40;48.40
39751;DHT22;37579;51.074;17.004;2024-03-06T11:17:04;24.40;48.50
39751;DHT22;37579;51.074;17.004;2024-03-06T11:28:20;24.40;49.20
39751;DHT22;37579;51.074;17.004;2024-03-06T11:33:21;24.40;49.50
39751;DHT22;37579;51.074;17.004;2024-03-06T11:39:02;24.40;49.80
39751;DHT22;37579;51.074;17.004;2024-03-06T11:44:13;24.30;50.10
39751;DHT22;37579;51.074;17.004;2024-03-06T11:47:09;24.30;50.30
39751;DHT22;37579;51.074;17.004;2024-03-06T11:49:35;24.30;50.50
39751;DHT22;37579;51.074;17.004;2024-03-06T11:54:29;24.30;50.70
39751;DHT22;37579;51.074;17.004;2024-03-06T11:56:57;24.30;50.70
39751;DHT22;37579;51.074;17.004;2024-03-06T11:59:27;24.30;50.80
39751;DHT22;37579;51.074;17.004;2024-03-06T12:01:55;24.30;51.20
39751;DHT22;37579;51.074;17.004;2024-03-06T12:04:21;24.40;51.30
39751;DHT22;37579;51.074;17.004;2024-03-06T12:06:48;24.30;51.40
39751;DHT22;37579;51.074;17.004;2024-03-06T12:09:17;24.40;51.60
39751;DHT22;37579;51.074;17.004;2024-03-06T12:11:43;24.40;51.70
39751;DHT22;37579;51.074;17.004;2024-03-06T12:14:19;24.40;51.90
39751;DHT22;37579;51.074;17.004;2024-03-06T12:16:58;24.30;52.10
39751;DHT22;37579;51.074;17.004;2024-03-06T12:19:28;24.40;52.30
39751;DHT22;37579;51.074;17.004;2024-03-06T12:21:55;24.30;52.40
39751;DHT22;37579;51.074;17.004;2024-03-06T12:24:21;24.30;52.40
39751;DHT22;37579;51.074;17.004;2024-03-06T12:26:57;24.30;52.60
39751;DHT22;37579;51.074;17.004;2024-03-06T12:29:23;24.30;52.70
39751;DHT22;37579;51.074;17.004;2024-03-06T12:31:49;24.40;52.90
39751;DHT22;37579;51.074;17.004;2024-03-06T12:34:15;24.40;52.90
39751;DHT22;37579;51.074;17.004;2024-03-06T12:36:44;24.30;52.50
39751;DHT22;37579;51.074;17.004;2024-03-06T12:39:10;24.30;52.50
39751;DHT22;37579;51.074;17.004;2024-03-06T12:41:40;24.40;52.50
39751;DHT22;37579;51.074;17.004;2024-03-06T12:44:06;24.30;52.40
39751;DHT22;37579;51.074;17.004;2024-03-06T12:46:32;24.30;52.50
39751;DHT22;37579;51.074;17.004;2024-03-06T12:48:58;24.30;52.60
39751;DHT22;37579;51.074;17.004;2024-03-06T12:51:24;24.30;52.60
39751;DHT22;37579;51.074;17.004;2024-03-06T12:53:50;24.30;52.50
39751;DHT22;37579;51.074;17.004;2024-03-06T12:56:17;24.30;52.50
39751;DHT22;37579;51.074;17.004;2024-03-06T12:58:43;24.30;52.70
39751;DHT22;37579;51.074;17.004;2024-03-06T13:01:09;24.30;52.70
39751;DHT22;37579;51.074;17.004;2024-03-06T13:03:36;24.30;53.00
39751;DHT22;37579;51.074;17.004;2024-03-06T13:06:03;24.30;53.10
39751;DHT22;37579;51.074;17.004;2024-03-06T13:08:32;24.30;53.30
39751;DHT22;37579;51.074;17.004;2024-03-06T13:10:57;24.30;53.60
39751;DHT22;37579;51.074;17.004;2024-03-06T13:13:24;24.30;53.90
39751;DHT22;37579;51.074;17.004;2024-03-06T13:15:53;24.30;55.10
39751;DHT22;37579;51.074;17.004;2024-03-06T13:18:19;24.30;54.30
39751;DHT22;37579;51.074;17.004;2024-03-06T13:20:45;24.30;54.10
39751;DHT22;37579;51.074;17.004;2024-03-06T13:23:11;24.20;54.10
39751;DHT22;37579;51.074;17.004;2024-03-06T13:25:37;24.20;54.20
39751;DHT22;37579;51.074;17.004;2024-03-06T13:28:04;24.20;54.20
39751;DHT22;37579;51.074;17.004;2024-03-06T13:30:31;24.20;54.30
39751;DHT22;37579;51.074;17.004;2024-03-06T13:32:57;24.20;54.20
39751;DHT22;37579;51.074;17.004;2024-03-06T13:35:23;24.20;54.30
39751;DHT22;37579;51.074;17.004;2024-03-06T13:37:49;24.20;54.90
39751;DHT22;37579;51.074;17.004;2024-03-06T13:40:15;24.30;55.00
39751;DHT22;37579;51.074;17.004;2024-03-06T13:42:42;24.30;54.90
39751;DHT22;37579;51.074;17.004;2024-03-06T13:45:08;24.40;54.70
39751;DHT22;37579;51.074;17.004;2024-03-06T13:47:38;24.40;54.60
39751;DHT22;37579;51.074;17.004;2024-03-06T13:50:14;24.40;54.50
39751;DHT22;37579;51.074;17.004;2024-03-06T13:52:41;24.40;54.40
39751;DHT22;37579;51.074;17.004;2024-03-06T13:55:08;24.40;54.50
39751;DHT22;37579;51.074;17.004;2024-03-06T13:57:35;24.50;54.50
39751;DHT22;37579;51.074;17.004;2024-03-06T14:00:05;24.50;54.40
39751;DHT22;37579;51.074;17.004;2024-03-06T14:02:37;24.50;54.40
39751;DHT22;37579;51.074;17.004;2024-03-06T14:05:03;24.60;54.40
39751;DHT22;37579;51.074;17.004;2024-03-06T14:07:29;24.60;54.50
39751;DHT22;37579;51.074;17.004;2024-03-06T14:09:54;24.60;54.40
39751;DHT22;37579;51.074;17.004;2024-03-06T14:12:23;24.60;54.60
39751;DHT22;37579;51.074;17.004;2024-03-06T14:14:49;24.60;54.60
39751;DHT22;37579;51.074;17.004;2024-03-06T14:17:15;24.70;54.70
39751;DHT22;37579;51.074;17.004;2024-03-06T14:19:40;24.70;54.70
39751;DHT22;37579;51.074;17.004;2024-03-06T14:22:07;24.70;54.70
39751;DHT22;37579;51.074;17.004;2024-03-06T14:24:33;24.70;54.60
39751;DHT22;37579;51.074;17.004;2024-03-06T14:26:59;24.70;54.70
39751;DHT22;37579;51.074;17.004;2024-03-06T14:29:25;24.80;54.60
39751;DHT22;37579;51.074;17.004;2024-03-06T14:31:54;24.80;54.60
39751;DHT22;37579;51.074;17.004;2024-03-06T14:34:20;24.80;54.50
39751;DHT22;37579;51.074;17.004;2024-03-06T14:36:46;24.80;54.20
39751;DHT22;37579;51.074;17.004;2024-03-06T14:39:12;24.80;54.20
39751;DHT22;37579;51.074;17.004;2024-03-06T14:41:40;24.80;54.10
39751;DHT22;37579;51.074;17.004;2024-03-06T14:44:08;24.80;54.00
39751;DHT22;37579;51.074;17.004;2024-03-06T14:46:33;24.80;54.00
39751;DHT22;37579;51.074;17.004;2024-03-06T14:48:59;24.80;53.90
39751;DHT22;37579;51.074;17.004;2024-03-06T14:51:28;24.80;53.80
39751;DHT22;37579;51.074;17.004;2024-03-06T14:53:54;24.80;53.80
39751;DHT22;37579;51.074;17.004;2024-03-06T14:56:20;24.80;53.80
39751;DHT22;37579;51.074;17.004;2024-03-06T14:58:47;24.80;53.90
39751;DHT22;37579;51.074;17.004;2024-03-06T15:01:13;24.70;53.90
39751;DHT22;37579;51.074;17.004;2024-03-06T15:03:39;24.70;53.90
39751;DHT22;37579;51.074;17.004;2024-03-06T15:06:06;24.70;53.90
39751;DHT22;37579;51.074;17.004;2024-03-06T15:08:36;24.70;53.90
39751;DHT22;37579;51.074;17.004;2024-03-06T15:11:02;24.70;53.90
39751;DHT22;37579;51.074;17.004;2024-03-06T15:13:28;24.70;53.60
39751;DHT22;37579;51.074;17.004;2024-03-06T15:15:54;24.70;53.70
39751;DHT22;37579;51.074;17.004;2024-03-06T15:18:20;24.70;53.70
39751;DHT22;37579;51.074;17.004;2024-03-06T15:20:46;24.60;53.80
39751;DHT22;37579;51.074;17.004;2024-03-06T15:23:12;24.60;53.80
39751;DHT22;37579;51.074;17.004;2024-03-06T15:25:38;24.60;53.80
39751;DHT22;37579;51.074;17.004;2024-03-06T15:28:04;24.60;54.00
39751;DHT22;37579;51.074;17.004;2024-03-06T15:30:29;24.60;54.00
39751;DHT22;37579;51.074;17.004;2024-03-06T15:32:57;24.60;53.60
39751;DHT22;37579;51.074;17.004;2024-03-06T15:35:23;24.50;53.70